Terminal Aerodrome Forecast
Issued by NWS

Home | Current Version | Previous Version | Text Only | Print | Product List | Glossary On
Versions: 1 2 3 4 5 6 7 8 9 10 11 12 13 14
959
FTUS44 KTSA 171257 AAA
TAFXNA
TAF AMD
KXNA 171257Z 1713/1812 26006KT P6SM OVC006
      TEMPO 1713/1716 3SM -DZ BR OVC003
     FM171900 20008KT P6SM OVC015
     FM180300 22004KT 4SM BR OVC007=

USA.gov is the U.S. government's official web portal to all federal, state and local government web resources and services.